createdAt,value
2018-04-22T00:00:04.318Z,11.87
2018-04-22T00:02:15.428Z,12.93
2018-04-22T00:04:26.500Z,12.77
2018-04-22T00:06:37.634Z,13.50
2018-04-22T00:08:48.709Z,11.73
2018-04-22T00:10:59.920Z,12.80
2018-04-22T00:13:11.013Z,12.37
2018-04-22T00:15:22.077Z,12.13
2018-04-22T00:17:33.174Z,11.93
2018-04-22T00:19:44.286Z,11.67
2018-04-22T00:21:55.397Z,11.60
2018-04-22T00:24:06.513Z,10.93
2018-04-22T00:26:17.694Z,11.20
2018-04-22T00:28:28.778Z,11.87
2018-04-22T00:30:39.868Z,12.00
2018-04-22T00:32:50.951Z,11.80
2018-04-22T00:35:02.016Z,12.70
2018-04-22T00:37:13.149Z,12.27
2018-04-22T00:39:24.256Z,10.83
2018-04-22T00:41:35.365Z,11.97
2018-04-22T00:43:46.454Z,12.50
2018-04-22T00:45:57.573Z,12.07
2018-04-22T00:48:08.932Z,11.80
2018-04-22T00:50:19.986Z,12.10
2018-04-22T00:52:31.124Z,11.90
2018-04-22T00:54:42.192Z,11.10
2018-04-22T00:56:53.241Z,11.53
2018-04-22T00:59:04.303Z,10.10
2018-04-22T01:01:15.527Z,10.67
2018-04-22T01:03:26.583Z,9.10
2018-04-22T01:05:37.725Z,11.73
2018-04-22T01:07:48.797Z,12.00
2018-04-22T01:09:59.922Z,12.10
2018-04-22T01:12:11.001Z,12.10
2018-04-22T01:14:22.078Z,12.00
2018-04-22T01:16:33.154Z,11.40
2018-04-22T01:18:44.196Z,11.93
2018-04-22T01:20:55.347Z,11.87
2018-04-22T01:23:06.442Z,12.00
2018-04-22T01:25:17.672Z,12.43
2018-04-22T01:27:28.766Z,12.00
2018-04-22T01:29:39.908Z,11.40
2018-04-22T01:31:51.033Z,12.00
2018-04-22T01:34:02.078Z,11.23
2018-04-22T01:36:13.207Z,10.47
2018-04-22T01:38:24.330Z,10.47
2018-04-22T01:40:35.487Z,9.80
2018-04-22T01:42:46.613Z,12.00
2018-04-22T01:44:57.674Z,10.77
2018-04-22T01:47:08.730Z,11.10
2018-04-22T01:49:19.840Z,9.97
2018-04-22T01:51:30.907Z,11.70
2018-04-22T01:53:42.045Z,10.53
2018-04-22T01:55:53.149Z,11.13
2018-04-22T01:58:04.246Z,11.03
2018-04-22T02:00:15.302Z,10.80
2018-04-22T02:02:26.391Z,11.13
2018-04-22T02:04:37.517Z,11.80
2018-04-22T02:06:48.593Z,11.57
2018-04-22T02:08:59.859Z,10.97
2018-04-22T02:11:10.973Z,11.50
2018-04-22T02:13:22.157Z,11.30
2018-04-22T02:15:33.290Z,11.40
2018-04-22T02:17:44.434Z,12.60
2018-04-22T02:19:55.514Z,11.83
2018-04-22T02:22:06.578Z,11.97
2018-04-22T02:24:17.630Z,11.73
2018-04-22T02:26:28.678Z,12.07
2018-04-22T02:28:39.925Z,10.00
2018-04-22T02:30:50.966Z,11.90
2018-04-22T02:33:02.129Z,12.00
2018-04-22T02:35:13.355Z,11.37
2018-04-22T02:37:24.462Z,11.93
2018-04-22T02:39:35.528Z,12.00
2018-04-22T02:41:46.604Z,11.83
2018-04-22T02:43:57.674Z,11.10
2018-04-22T02:46:08.714Z,11.07
2018-04-22T02:48:19.978Z,11.67
2018-04-22T02:50:31.030Z,11.77
2018-04-22T02:52:42.177Z,11.70
2018-04-22T02:54:53.273Z,11.60
2018-04-22T02:57:04.362Z,10.87
2018-04-22T02:59:15.466Z,11.53
2018-04-22T03:01:26.519Z,11.07
2018-04-22T03:03:37.616Z,12.03
2018-04-22T03:05:49.649Z,12.13
2018-04-22T03:08:00.696Z,12.23
2018-04-22T03:10:12.367Z,12.77
2018-04-22T03:12:24.011Z,12.53
2018-04-22T03:14:35.071Z,12.77
2018-04-22T03:16:46.242Z,12.77
2018-04-22T03:18:57.318Z,12.47
2018-04-22T03:21:08.410Z,11.63
2018-04-22T03:23:19.482Z,11.97
2018-04-22T03:25:30.553Z,12.07
2018-04-22T03:27:41.725Z,10.90
2018-04-22T03:29:52.826Z,12.13
2018-04-22T03:32:03.975Z,12.17
2018-04-22T03:34:15.030Z,12.27
2018-04-22T03:36:26.118Z,11.93
2018-04-22T03:38:37.169Z,11.13
2018-04-22T03:40:48.273Z,12.33
2018-04-22T03:42:59.330Z,13.53
2018-04-22T03:45:10.418Z,12.67
2018-04-22T03:47:21.590Z,12.13
2018-04-22T03:49:32.644Z,11.80
2018-04-22T03:51:43.746Z,12.17
2018-04-22T03:53:54.854Z,9.77
2018-04-22T03:56:05.941Z,11.80
2018-04-22T03:58:17.026Z,12.33
2018-04-22T04:00:28.197Z,12.20
2018-04-22T04:02:39.385Z,13.00
2018-04-22T04:04:50.492Z,11.60
2018-04-22T04:07:01.562Z,12.03
2018-04-22T04:09:12.649Z,12.20
2018-04-22T04:11:23.802Z,12.60
2018-04-22T04:13:34.845Z,12.17
2018-04-22T04:15:45.914Z,11.53
2018-04-22T04:21:05.803Z,11.50
2018-04-22T04:23:16.845Z,12.40
2018-04-22T04:28:13.659Z,12.00
2018-04-22T04:30:24.835Z,12.83
2018-04-22T04:32:35.974Z,13.20
2018-04-22T04:34:47.046Z,13.40
2018-04-22T04:36:58.150Z,14.60
2018-04-22T04:39:09.226Z,11.37
2018-04-22T04:41:20.322Z,10.33
2018-04-22T04:43:31.408Z,12.20
2018-04-22T04:45:42.557Z,12.27
2018-04-22T04:47:53.702Z,12.00
2018-04-22T04:50:04.966Z,11.47
2018-04-22T04:52:16.101Z,12.33
2018-04-22T04:54:27.166Z,12.73
2018-04-22T04:56:38.548Z,11.97
2018-04-22T04:58:49.762Z,11.87
2018-04-22T05:01:00.848Z,11.20
2018-04-22T05:03:11.907Z,12.40
2018-04-22T05:05:22.986Z,11.43
2018-04-22T05:07:34.077Z,8.47
2018-04-22T05:09:45.141Z,9.30
2018-04-22T05:11:56.261Z,10.37
2018-04-22T05:14:07.323Z,11.00
2018-04-22T05:16:18.576Z,11.20
2018-04-22T05:18:29.639Z,10.87
2018-04-22T05:20:40.737Z,10.57
2018-04-22T05:22:51.847Z,11.47
2018-04-22T05:25:02.907Z,11.23
2018-04-22T05:27:14.123Z,8.80
2018-04-22T05:29:25.216Z,10.47
2018-04-22T05:31:36.436Z,8.00
2018-04-22T05:33:47.591Z,9.97
2018-04-22T05:35:58.761Z,10.80
2018-04-22T05:38:09.931Z,9.37
2018-04-22T05:40:20.997Z,9.03
2018-04-22T05:42:32.071Z,10.13
2018-04-22T05:44:43.134Z,11.07
2018-04-22T05:46:54.390Z,11.80
2018-04-22T05:49:07.266Z,9.67
2018-04-22T05:51:18.583Z,9.20
2018-04-22T05:53:29.665Z,10.07
2018-04-22T05:55:40.781Z,9.83
2018-04-22T05:57:51.825Z,12.23
2018-04-22T06:00:02.918Z,10.83
2018-04-22T06:02:14.016Z,10.33
2018-04-22T06:04:25.105Z,10.97
2018-04-22T06:06:36.320Z,11.50
2018-04-22T06:08:47.475Z,12.97
2018-04-22T06:10:58.720Z,11.80
2018-04-22T06:13:09.823Z,13.80
2018-04-22T06:15:20.947Z,13.43
2018-04-22T06:17:32.079Z,13.53
2018-04-22T06:19:43.213Z,13.20
2018-04-22T06:21:54.362Z,13.77
2018-04-22T06:24:05.419Z,14.10
2018-04-22T06:26:18.629Z,11.50
2018-04-22T06:28:29.756Z,14.27
2018-04-22T06:30:40.980Z,14.03
2018-04-22T06:32:52.090Z,11.77
2018-04-22T06:35:05.099Z,13.57
2018-04-22T06:37:16.226Z,14.07
2018-04-22T06:39:27.321Z,13.57
2018-04-22T06:41:38.399Z,12.47
2018-04-22T06:43:49.451Z,13.37
2018-04-22T06:46:00.594Z,13.50
2018-04-22T06:48:11.737Z,14.87
2018-04-22T06:50:25.740Z,13.53
2018-04-22T06:52:36.891Z,13.03
2018-04-22T06:54:47.954Z,14.07
2018-04-22T06:56:59.065Z,14.60
2018-04-22T06:59:11.030Z,14.20
2018-04-22T07:01:22.163Z,12.07
2018-04-22T07:03:33.271Z,13.43
2018-04-22T07:05:44.459Z,13.63
2018-04-22T07:07:55.564Z,12.30
2018-04-22T07:10:06.712Z,11.90
2018-04-22T07:12:17.810Z,11.80
2018-04-22T07:14:28.910Z,12.80
2018-04-22T07:16:40.010Z,11.70
2018-04-22T07:18:51.122Z,11.80
2018-04-22T07:21:02.179Z,11.93
2018-04-22T07:23:13.303Z,11.17
2018-04-22T07:25:26.287Z,11.07
2018-04-22T07:27:37.431Z,10.33
2018-04-22T07:29:48.603Z,10.90
2018-04-22T07:31:59.666Z,11.90
2018-04-22T07:34:11.001Z,10.20
2018-04-22T07:36:22.140Z,9.80
2018-04-22T07:38:33.304Z,9.23
2018-04-22T07:40:44.456Z,9.17
2018-04-22T07:42:55.498Z,8.10
2018-04-22T07:45:07.507Z,10.33
2018-04-22T07:47:23.420Z,10.47
2018-04-22T07:49:36.449Z,10.30
2018-04-22T07:51:47.565Z,9.00
2018-04-22T07:53:58.710Z,8.47
2018-04-22T07:56:09.792Z,8.43
2018-04-22T07:58:25.745Z,8.40
2018-04-22T08:00:36.898Z,9.10
2018-04-22T08:02:48.109Z,7.90
2018-04-22T08:04:59.254Z,7.93
2018-04-22T08:07:10.350Z,7.20
2018-04-22T08:09:21.447Z,8.27
2018-04-22T08:11:32.599Z,8.30
2018-04-22T08:13:44.574Z,7.93
2018-04-22T08:15:55.735Z,8.63
2018-04-22T08:18:06.817Z,8.10
2018-04-22T08:20:17.918Z,8.37
2018-04-22T08:22:29.060Z,8.47
2018-04-22T08:24:40.229Z,7.83
2018-04-22T08:26:51.445Z,8.33
2018-04-22T08:29:02.711Z,7.53
2018-04-22T08:31:13.820Z,7.07
2018-04-22T08:33:25.036Z,6.60
2018-04-22T08:35:36.254Z,7.07
2018-04-22T08:37:51.093Z,7.63
2018-04-22T08:40:02.208Z,8.67
2018-04-22T08:42:13.313Z,7.30
2018-04-22T08:44:24.417Z,7.20
2018-04-22T08:46:36.059Z,8.27
2018-04-22T08:48:47.137Z,8.27
2018-04-22T08:50:58.251Z,6.53
2018-04-22T08:53:09.395Z,7.80
2018-04-22T08:55:20.617Z,7.57
2018-04-22T08:57:31.811Z,7.17
2018-04-22T08:59:43.102Z,6.77
2018-04-22T09:01:54.187Z,5.60
2018-04-22T09:04:05.313Z,6.63
2018-04-22T09:06:16.402Z,5.80
2018-04-22T09:08:27.473Z,6.50
2018-04-22T09:10:38.622Z,5.87
2018-04-22T09:12:49.695Z,6.90
2018-04-22T09:15:00.834Z,6.57
2018-04-22T09:17:11.970Z,6.60
2018-04-22T09:19:23.164Z,7.50
2018-04-22T09:21:34.265Z,6.23
2018-04-22T09:23:45.504Z,7.00
2018-04-22T09:25:56.622Z,6.73
2018-04-22T09:28:07.702Z,6.37
2018-04-22T09:30:18.777Z,5.63
2018-04-22T09:32:29.850Z,6.40
2018-04-22T09:34:41.105Z,6.00
2018-04-22T09:36:52.270Z,6.70
2018-04-22T09:39:03.510Z,6.47
2018-04-22T09:41:14.779Z,5.97
2018-04-22T09:43:26.794Z,6.47
2018-04-22T09:45:37.885Z,6.40
2018-04-22T09:47:49.185Z,6.40
2018-04-22T09:50:04.911Z,6.80
2018-04-22T09:52:16.043Z,6.80
2018-04-22T09:54:27.194Z,6.27
2018-04-22T09:56:38.334Z,6.00
2018-04-22T09:58:49.469Z,6.73
2018-04-22T10:01:02.407Z,6.23
2018-04-22T10:03:13.583Z,7.80
2018-04-22T10:05:24.700Z,7.73
2018-04-22T10:07:35.764Z,7.97
2018-04-22T10:09:46.874Z,6.40
2018-04-22T10:11:58.015Z,6.90
2018-04-22T10:14:09.312Z,7.07
2018-04-22T10:16:21.459Z,6.83
2018-04-22T10:18:32.719Z,7.30
2018-04-22T10:20:43.765Z,7.00
2018-04-22T10:22:54.874Z,6.40
2018-04-22T10:25:06.842Z,7.07
2018-04-22T10:27:18.890Z,6.43
2018-04-22T10:29:30.290Z,6.60
2018-04-22T10:31:41.425Z,6.80
2018-04-22T10:33:53.263Z,6.20
2018-04-22T10:36:05.354Z,7.67
2018-04-22T10:38:20.285Z,8.00
2018-04-22T10:40:33.035Z,7.73
2018-04-22T10:42:44.151Z,7.10
2018-04-22T10:44:56.214Z,7.93
2018-04-22T10:47:07.341Z,7.00
2018-04-22T10:49:18.456Z,7.70
2018-04-22T10:51:29.623Z,7.57
2018-04-22T10:53:40.768Z,6.97
2018-04-22T10:55:52.015Z,7.00
2018-04-22T10:58:03.164Z,6.40
2018-04-22T11:00:15.150Z,6.90
2018-04-22T11:02:26.233Z,7.33
2018-04-22T11:04:37.421Z,7.40
2018-04-22T11:06:48.486Z,6.30
2018-04-22T11:08:59.630Z,6.00
2018-04-22T11:11:10.753Z,6.20
2018-04-22T11:13:21.931Z,6.63
2018-04-22T11:15:33.076Z,6.23
2018-04-22T11:17:44.150Z,6.70
2018-04-22T11:19:55.228Z,5.80
2018-04-22T11:22:06.369Z,6.00
2018-04-22T11:24:17.459Z,6.53
2018-04-22T11:26:28.623Z,6.93
2018-04-22T11:28:39.734Z,6.63
2018-04-22T11:30:50.860Z,7.00
2018-04-22T11:33:02.040Z,6.37
2018-04-22T11:35:13.123Z,7.20
2018-04-22T11:37:24.232Z,6.80
2018-04-22T11:39:35.342Z,6.73
2018-04-22T11:41:46.426Z,7.23
2018-04-22T11:43:57.629Z,6.80
2018-04-22T11:46:08.732Z,5.67
2018-04-22T11:48:19.873Z,6.27
2018-04-22T11:50:30.945Z,5.93
2018-04-22T11:52:42.109Z,5.63
2018-04-22T11:54:53.198Z,6.33
2018-04-22T11:57:04.303Z,5.70
2018-04-22T11:59:15.466Z,5.37
2018-04-22T12:01:26.589Z,5.70
2018-04-22T12:03:37.907Z,4.80
2018-04-22T12:05:51.769Z,5.57
2018-04-22T12:08:02.846Z,4.97
2018-04-22T12:10:14.022Z,6.07
2018-04-22T12:12:25.105Z,5.50
2018-04-22T12:14:36.220Z,5.27
2018-04-22T12:16:47.400Z,5.10
2018-04-22T12:18:58.496Z,7.60
2018-04-22T12:21:10.533Z,6.03
2018-04-22T12:23:21.681Z,7.97
2018-04-22T12:25:32.809Z,6.10
2018-04-22T12:27:44.026Z,5.20
2018-04-22T12:29:55.113Z,5.00
2018-04-22T12:32:06.191Z,5.20
2018-04-22T12:34:17.321Z,4.57
2018-04-22T12:36:28.395Z,5.43
2018-04-22T12:38:39.564Z,5.00
2018-04-22T12:40:50.685Z,4.63
2018-04-22T12:43:01.790Z,4.83
2018-04-22T12:45:12.930Z,5.37
2018-04-22T12:47:24.098Z,4.87
2018-04-22T12:49:35.221Z,4.73
2018-04-22T12:51:46.295Z,4.20
2018-04-22T12:54:04.836Z,5.00
2018-04-22T12:56:15.944Z,4.27
2018-04-22T12:58:27.012Z,5.23
2018-04-22T13:00:38.309Z,5.10
2018-04-22T13:02:49.457Z,5.90
2018-04-22T13:05:00.604Z,5.17
2018-04-22T13:07:11.838Z,4.30
2018-04-22T13:09:22.933Z,4.27
2018-04-22T13:11:34.898Z,5.17
2018-04-22T13:13:46.030Z,4.63
2018-04-22T13:15:57.105Z,4.97
2018-04-22T13:18:08.242Z,4.90
2018-04-22T13:20:19.290Z,5.00
2018-04-22T13:22:30.443Z,4.33
2018-04-22T13:24:41.553Z,4.57
2018-04-22T13:26:52.637Z,4.53
2018-04-22T13:29:03.852Z,4.70
2018-04-22T13:31:14.946Z,4.17
2018-04-22T13:33:26.168Z,4.30
2018-04-22T13:35:37.361Z,5.13
2018-04-22T13:37:48.554Z,4.60
2018-04-22T13:39:59.727Z,4.97
2018-04-22T13:42:10.812Z,4.00
2018-04-22T13:44:21.930Z,4.70
2018-04-22T13:46:33.041Z,4.27
2018-04-22T13:48:44.139Z,4.23
2018-04-22T13:50:55.223Z,4.27
2018-04-22T13:53:06.337Z,4.67
2018-04-22T13:55:17.709Z,4.77
2018-04-22T13:57:28.805Z,4.50
2018-04-22T13:59:39.901Z,4.37
2018-04-22T14:01:50.972Z,4.17
2018-04-22T14:04:02.175Z,3.70
2018-04-22T14:06:13.337Z,4.57
2018-04-22T14:08:24.416Z,4.77
2018-04-22T14:10:35.534Z,4.27
2018-04-22T14:12:46.597Z,4.60
2018-04-22T14:14:57.778Z,4.63
2018-04-22T14:17:08.841Z,4.93
2018-04-22T14:19:19.990Z,4.60
2018-04-22T14:21:31.124Z,3.33
2018-04-22T14:23:42.329Z,3.60
2018-04-22T14:25:53.773Z,4.43
2018-04-22T14:28:04.846Z,4.00
2018-04-22T14:30:15.991Z,4.27
2018-04-22T14:32:27.021Z,4.33
2018-04-22T14:34:38.184Z,4.00
2018-04-22T14:36:49.290Z,3.43
2018-04-22T14:39:00.418Z,3.40
2018-04-22T14:41:11.558Z,3.80
2018-04-22T14:43:22.670Z,4.60
2018-04-22T14:45:46.051Z,3.87
2018-04-22T14:47:57.110Z,3.43
2018-04-22T14:50:08.250Z,4.33
2018-04-22T14:52:19.368Z,4.30
2018-04-22T14:54:30.447Z,3.70
2018-04-22T14:56:41.553Z,4.17
2018-04-22T14:58:52.606Z,4.90
2018-04-22T15:01:03.777Z,4.40
2018-04-22T15:03:14.875Z,4.13
2018-04-22T15:05:26.010Z,4.70
2018-04-22T15:07:37.070Z,5.37
2018-04-22T15:09:48.258Z,4.83
2018-04-22T15:12:02.199Z,3.97
2018-04-22T15:14:13.305Z,4.87
2018-04-22T15:16:24.487Z,4.90
2018-04-22T15:18:35.597Z,3.93
2018-04-22T15:20:46.657Z,3.57
2018-04-22T15:23:01.475Z,2.70
2018-04-22T15:25:12.637Z,3.63
2018-04-22T15:27:24.050Z,3.93
2018-04-22T15:29:37.079Z,4.50
2018-04-22T15:31:48.166Z,4.13
2018-04-22T15:33:59.269Z,3.80
2018-04-22T15:36:10.349Z,3.30
2018-04-22T15:38:21.501Z,3.57
2018-04-22T15:40:32.677Z,4.40
2018-04-22T15:42:45.592Z,3.80
2018-04-22T15:44:56.625Z,3.73
2018-04-22T15:47:07.705Z,3.57
2018-04-22T15:49:18.841Z,4.00
2018-04-22T15:51:29.986Z,3.20
2018-04-22T15:53:41.129Z,4.23
2018-04-22T15:55:52.344Z,4.77
2018-04-22T15:58:03.420Z,3.70
2018-04-22T16:00:14.607Z,3.67
2018-04-22T16:02:25.683Z,4.00
2018-04-22T16:04:36.781Z,3.60
2018-04-22T16:06:47.897Z,3.00
2018-04-22T16:08:58.982Z,2.67
2018-04-22T16:11:10.134Z,4.20
2018-04-22T16:13:21.217Z,4.00
2018-04-22T16:15:32.365Z,3.30
2018-04-22T16:17:43.493Z,2.87
2018-04-22T16:19:54.602Z,6.20
2018-04-22T16:22:05.695Z,4.07
2018-04-22T16:24:16.829Z,3.10
2018-04-22T16:26:27.904Z,3.10
2018-04-22T16:28:39.010Z,3.30
2018-04-22T16:30:51.214Z,3.60
2018-04-22T16:33:02.371Z,3.20
2018-04-22T16:35:13.531Z,4.00
2018-04-22T16:37:24.586Z,3.97
2018-04-22T16:39:35.700Z,4.63
2018-04-22T16:41:46.925Z,4.73
2018-04-22T16:43:58.171Z,4.67
2018-04-22T16:46:09.263Z,3.90
2018-04-22T16:48:20.514Z,3.40
2018-04-22T16:50:31.625Z,2.77
2018-04-22T16:52:42.803Z,2.67
2018-04-22T16:54:53.963Z,2.43
2018-04-22T16:57:05.101Z,2.80
2018-04-22T16:59:16.201Z,2.10
2018-04-22T17:01:27.301Z,3.50
2018-04-22T17:03:38.598Z,3.10
2018-04-22T17:05:49.779Z,2.50
2018-04-22T17:08:00.975Z,7.37
2018-04-22T17:10:12.199Z,7.23
2018-04-22T17:12:23.296Z,5.73
2018-04-22T17:14:34.461Z,5.10
2018-04-22T17:16:45.534Z,4.83
2018-04-22T17:18:56.712Z,4.90
2018-04-22T17:21:07.861Z,5.30
2018-04-22T17:23:18.964Z,3.93
2018-04-22T17:25:30.041Z,5.77
2018-04-22T17:27:41.157Z,5.90
2018-04-22T17:29:52.350Z,6.47
2018-04-22T17:32:03.570Z,6.90
2018-04-22T17:34:14.689Z,5.37
2018-04-22T17:36:25.788Z,5.10
2018-04-22T17:38:36.994Z,4.40
2018-04-22T17:40:48.279Z,4.90
2018-04-22T17:42:59.339Z,5.50
2018-04-22T17:45:10.405Z,5.27
2018-04-22T17:47:21.496Z,4.70
2018-04-22T17:49:32.680Z,4.50
2018-04-22T17:51:43.829Z,4.53
2018-04-22T17:53:54.925Z,3.70
2018-04-22T17:56:06.083Z,4.63
2018-04-22T17:58:17.214Z,3.93
2018-04-22T18:00:28.354Z,3.47
2018-04-22T18:02:39.477Z,3.97
2018-04-22T18:04:50.705Z,4.80
2018-04-22T18:07:01.852Z,5.03
2018-04-22T18:09:13.109Z,5.00
2018-04-22T18:11:24.285Z,4.80
2018-04-22T18:13:35.401Z,4.77
2018-04-22T18:15:46.626Z,4.50
2018-04-22T18:17:57.744Z,4.70
2018-04-22T18:20:08.897Z,4.57
2018-04-22T18:22:20.011Z,5.37
2018-04-22T18:24:31.130Z,4.60
2018-04-22T18:26:42.214Z,5.17
2018-04-22T18:28:53.318Z,5.43
2018-04-22T18:31:04.492Z,4.90
2018-04-22T18:33:15.619Z,4.53
2018-04-22T18:35:26.793Z,5.20
2018-04-22T18:37:37.898Z,5.30
2018-04-22T18:39:49.145Z,5.23
2018-04-22T18:42:00.253Z,5.00
2018-04-22T18:44:11.364Z,5.77
2018-04-22T18:46:22.675Z,5.40
2018-04-22T18:48:33.801Z,6.43
2018-04-22T18:50:44.913Z,5.73
2018-04-22T18:52:56.021Z,6.47
2018-04-22T18:55:07.191Z,5.57
2018-04-22T18:57:18.434Z,6.13
2018-04-22T18:59:29.722Z,5.40
2018-04-22T19:01:40.928Z,4.77
2018-04-22T19:03:52.068Z,5.63
2018-04-22T19:06:03.282Z,4.70
2018-04-22T19:08:14.393Z,4.63
2018-04-22T19:10:25.541Z,5.30
2018-04-22T19:12:36.662Z,5.00
2018-04-22T19:14:47.741Z,4.57
2018-04-22T19:16:58.910Z,4.93
2018-04-22T19:19:09.995Z,5.80
2018-04-22T19:21:21.281Z,4.53
2018-04-22T19:23:32.398Z,3.90
2018-04-22T19:25:43.470Z,3.80
2018-04-22T19:27:54.638Z,4.53
2018-04-22T19:30:05.746Z,3.70
2018-04-22T19:32:16.891Z,4.60
2018-04-22T19:34:27.976Z,4.67
2018-04-22T19:36:39.094Z,5.93
2018-04-22T19:38:50.227Z,5.90
2018-04-22T19:41:01.371Z,5.77
2018-04-22T19:43:12.507Z,5.00
2018-04-22T19:45:23.598Z,4.33
2018-04-22T19:47:34.684Z,4.47
2018-04-22T19:49:45.767Z,4.60
2018-04-22T19:51:56.858Z,4.83
2018-04-22T19:54:07.973Z,4.67
2018-04-22T19:56:19.055Z,5.20
2018-04-22T19:58:30.194Z,4.27
2018-04-22T20:00:41.375Z,4.30
2018-04-22T20:02:52.556Z,4.70
2018-04-22T20:05:03.831Z,4.60
2018-04-22T20:07:15.017Z,4.27
2018-04-22T20:09:26.161Z,4.70
2018-04-22T20:11:37.383Z,4.83
2018-04-22T20:13:48.490Z,4.77
2018-04-22T20:15:59.577Z,4.47
2018-04-22T20:18:10.650Z,4.80
2018-04-22T20:20:21.730Z,4.87
2018-04-22T20:22:32.963Z,4.93
2018-04-22T20:24:44.127Z,4.90
2018-04-22T20:26:55.221Z,3.50
2018-04-22T20:29:06.342Z,4.60
2018-04-22T20:31:17.475Z,4.37
2018-04-22T20:33:28.552Z,4.67
2018-04-22T20:35:39.670Z,4.50
2018-04-22T20:37:50.772Z,4.40
2018-04-22T20:40:01.877Z,4.33
2018-04-22T20:42:13.063Z,4.03
2018-04-22T20:44:24.144Z,4.53
2018-04-22T20:46:35.298Z,4.70
2018-04-22T20:48:46.350Z,4.40
2018-04-22T20:50:57.503Z,3.97
2018-04-22T20:53:08.589Z,4.80
2018-04-22T20:55:19.672Z,3.90
2018-04-22T20:57:30.758Z,4.30
2018-04-22T20:59:41.938Z,5.37
2018-04-22T21:01:53.134Z,5.67
2018-04-22T21:04:04.203Z,5.77
2018-04-22T21:06:15.498Z,4.17
2018-04-22T21:08:26.590Z,3.93
2018-04-22T21:10:37.690Z,4.10
2018-04-22T21:12:48.793Z,3.97
2018-04-22T21:14:59.858Z,3.90
2018-04-22T21:17:11.025Z,3.77
2018-04-22T21:19:22.149Z,3.73
2018-04-22T21:21:33.305Z,3.73
2018-04-22T21:23:44.401Z,3.50
2018-04-22T21:25:55.526Z,4.07
2018-04-22T21:28:06.607Z,3.83
2018-04-22T21:30:17.953Z,4.40
2018-04-22T21:32:29.029Z,3.30
2018-04-22T21:34:40.134Z,3.40
2018-04-22T21:36:51.209Z,3.90
2018-04-22T21:39:02.298Z,3.53
2018-04-22T21:41:13.439Z,3.90
2018-04-22T21:43:24.567Z,3.53
2018-04-22T21:45:35.698Z,3.80
2018-04-22T21:47:46.834Z,3.13
2018-04-22T21:49:57.943Z,3.30
2018-04-22T21:52:09.078Z,3.77
2018-04-22T21:54:20.149Z,3.20
2018-04-22T21:56:31.289Z,3.63
2018-04-22T21:58:42.351Z,3.53
2018-04-22T22:00:53.505Z,3.67
2018-04-22T22:03:04.615Z,3.20
2018-04-22T22:05:15.785Z,3.87
2018-04-22T22:07:26.874Z,3.00
2018-04-22T22:09:37.957Z,3.33
2018-04-22T22:11:49.046Z,3.80
2018-04-22T22:14:00.098Z,3.70
2018-04-22T22:16:11.243Z,3.13
2018-04-22T22:18:22.327Z,3.90
2018-04-22T22:20:33.449Z,3.50
2018-04-22T22:22:44.546Z,3.93
2018-04-22T22:24:55.720Z,3.50
2018-04-22T22:27:06.794Z,3.10
2018-04-22T22:29:17.885Z,3.87
2018-04-22T22:31:28.978Z,3.40
2018-04-22T22:33:40.062Z,3.50
2018-04-22T22:35:51.134Z,3.80
2018-04-22T22:38:02.231Z,3.87
2018-04-22T22:40:13.491Z,3.83
2018-04-22T22:42:24.558Z,3.47
2018-04-22T22:44:35.805Z,3.83
2018-04-22T22:46:46.881Z,4.20
2018-04-22T22:48:57.996Z,4.10
2018-04-22T22:51:09.072Z,3.30
2018-04-22T22:53:20.134Z,3.87
2018-04-22T22:55:31.325Z,3.63
2018-04-22T22:57:42.430Z,3.83
2018-04-22T22:59:53.630Z,3.97
2018-04-22T23:02:04.730Z,3.90
2018-04-22T23:04:15.892Z,4.37
2018-04-22T23:06:26.992Z,4.30
2018-04-22T23:08:38.094Z,3.73
2018-04-22T23:10:49.137Z,3.27
2018-04-22T23:13:00.259Z,3.67
2018-04-22T23:15:11.417Z,3.70
2018-04-22T23:17:22.521Z,4.20
2018-04-22T23:19:33.624Z,3.30
2018-04-22T23:21:44.745Z,3.40
2018-04-22T23:23:55.814Z,3.73
2018-04-22T23:26:06.881Z,3.40
2018-04-22T23:28:17.981Z,4.10
2018-04-22T23:30:29.078Z,3.63
2018-04-22T23:32:40.343Z,3.60
2018-04-22T23:34:51.471Z,3.50
2018-04-22T23:37:02.534Z,3.80
2018-04-22T23:39:13.622Z,3.50
2018-04-22T23:41:24.758Z,4.07
2018-04-22T23:43:36.014Z,3.57
2018-04-22T23:45:47.078Z,4.00
2018-04-22T23:47:58.196Z,3.97
2018-04-22T23:50:09.314Z,3.80
2018-04-22T23:52:20.428Z,3.70
2018-04-22T23:54:31.569Z,3.67
2018-04-22T23:56:42.618Z,3.90
2018-04-22T23:58:53.897Z,4.10
